sensor_id;sensor_type;location;lat;lon;timestamp;temperature;humidity
41262;DHT22;29629;52.532;13.352;2024-01-30T00:00:27;4.90;99.90
41262;DHT22;29629;52.532;13.352;2024-01-30T00:02:54;5.00;99.90
41262;DHT22;29629;52.532;13.352;2024-01-30T00:05:21;5.00;99.90
41262;DHT22;29629;52.532;13.352;2024-01-30T00:07:50;5.00;99.90
41262;DHT22;29629;52.532;13.352;2024-01-30T00:10:17;4.90;99.90
41262;DHT22;29629;52.532;13.352;2024-01-30T00:12:44;4.90;99.90
41262;DHT22;29629;52.532;13.352;2024-01-30T00:15:11;4.90;99.90
41262;DHT22;29629;52.532;13.352;2024-01-30T00:17:38;4.90;99.90
41262;DHT22;29629;52.532;13.352;2024-01-30T00:20:06;4.90;99.90
41262;DHT22;29629;52.532;13.352;2024-01-30T00:22:34;4.90;99.90
41262;DHT22;29629;52.532;13.352;2024-01-30T00:25:03;4.90;99.90
41262;DHT22;29629;52.532;13.352;2024-01-30T00:27:30;4.90;99.90
41262;DHT22;29629;52.532;13.352;2024-01-30T00:29:57;4.90;99.90
41262;DHT22;29629;52.532;13.352;2024-01-30T00:32:24;4.80;99.90
41262;DHT22;29629;52.532;13.352;2024-01-30T00:34:51;4.90;99.90
41262;DHT22;29629;52.532;13.352;2024-01-30T00:37:17;4.90;99.90
41262;DHT22;29629;52.532;13.352;2024-01-30T00:39:44;4.80;99.90
41262;DHT22;29629;52.532;13.352;2024-01-30T00:42:13;4.80;99.90
41262;DHT22;29629;52.532;13.352;2024-01-30T00:44:40;4.80;99.90
41262;DHT22;29629;52.532;13.352;2024-01-30T00:47:06;4.80;99.90
41262;DHT22;29629;52.532;13.352;2024-01-30T00:49:33;4.90;99.90
41262;DHT22;29629;52.532;13.352;2024-01-30T00:52:01;4.80;99.90
41262;DHT22;29629;52.532;13.352;2024-01-30T00:54:28;4.80;99.90
41262;DHT22;29629;52.532;13.352;2024-01-30T00:56:54;4.80;99.90
41262;DHT22;29629;52.532;13.352;2024-01-30T00:59:23;4.70;99.90
41262;DHT22;29629;52.532;13.352;2024-01-30T01:01:50;4.70;99.90
41262;DHT22;29629;52.532;13.352;2024-01-30T01:04:17;4.70;99.90
41262;DHT22;29629;52.532;13.352;2024-01-30T01:06:44;4.70;99.90
41262;DHT22;29629;52.532;13.352;2024-01-30T01:09:11;4.70;99.90
41262;DHT22;29629;52.532;13.352;2024-01-30T01:11:38;4.70;99.90
41262;DHT22;29629;52.532;13.352;2024-01-30T01:14:05;4.60;99.90
41262;DHT22;29629;52.532;13.352;2024-01-30T01:16:34;4.60;99.90
41262;DHT22;29629;52.532;13.352;2024-01-30T01:19:01;4.60;99.90
41262;DHT22;29629;52.532;13.352;2024-01-30T01:21:28;4.60;99.90
41262;DHT22;29629;52.532;13.352;2024-01-30T01:23:55;4.60;99.90
41262;DHT22;29629;52.532;13.352;2024-01-30T01:26:22;4.60;99.90
41262;DHT22;29629;52.532;13.352;2024-01-30T01:28:49;4.60;99.90
41262;DHT22;29629;52.532;13.352;2024-01-30T01:31:16;4.60;99.90
41262;DHT22;29629;52.532;13.352;2024-01-30T01:33:44;4.60;99.90
41262;DHT22;29629;52.532;13.352;2024-01-30T01:36:13;4.50;99.90
41262;DHT22;29629;52.532;13.352;2024-01-30T01:38:40;4.50;99.90
41262;DHT22;29629;52.532;13.352;2024-01-30T01:41:07;4.60;99.90
41262;DHT22;29629;52.532;13.352;2024-01-30T01:43:34;4.60;99.90
41262;DHT22;29629;52.532;13.352;2024-01-30T01:46:01;4.50;99.90
41262;DHT22;29629;52.532;13.352;2024-01-30T01:48:28;4.50;99.90
41262;DHT22;29629;52.532;13.352;2024-01-30T01:50:56;4.50;99.90
41262;DHT22;29629;52.532;13.352;2024-01-30T01:53:26;4.50;99.90
41262;DHT22;29629;52.532;13.352;2024-01-30T01:55:54;4.50;99.90
41262;DHT22;29629;52.532;13.352;2024-01-30T01:58:22;4.50;99.90
41262;DHT22;29629;52.532;13.352;2024-01-30T02:00:53;4.50;99.90
41262;DHT22;29629;52.532;13.352;2024-01-30T02:03:20;4.50;99.90
41262;DHT22;29629;52.532;13.352;2024-01-30T02:05:47;4.40;99.90
41262;DHT22;29629;52.532;13.352;2024-01-30T02:08:16;4.40;99.90
41262;DHT22;29629;52.532;13.352;2024-01-30T02:10:43;4.40;99.90
41262;DHT22;29629;52.532;13.352;2024-01-30T02:13:10;4.40;99.90
41262;DHT22;29629;52.532;13.352;2024-01-30T02:15:37;4.40;99.90
41262;DHT22;29629;52.532;13.352;2024-01-30T02:18:04;4.40;99.90
41262;DHT22;29629;52.532;13.352;2024-01-30T02:20:31;4.40;99.90
41262;DHT22;29629;52.532;13.352;2024-01-30T02:23:03;4.40;99.90
41262;DHT22;29629;52.532;13.352;2024-01-30T02:25:31;4.40;99.90
41262;DHT22;29629;52.532;13.352;2024-01-30T02:27:58;4.40;99.90
41262;DHT22;29629;52.532;13.352;2024-01-30T02:30:25;4.40;99.90
41262;DHT22;29629;52.532;13.352;2024-01-30T02:32:52;4.40;99.90
41262;DHT22;29629;52.532;13.352;2024-01-30T02:35:19;4.40;99.90
41262;DHT22;29629;52.532;13.352;2024-01-30T02:37:46;4.40;99.90
41262;DHT22;29629;52.532;13.352;2024-01-30T02:40:14;4.30;99.90
41262;DHT22;29629;52.532;13.352;2024-01-30T02:42:41;4.30;99.90
41262;DHT22;29629;52.532;13.352;2024-01-30T02:45:10;4.30;99.90
41262;DHT22;29629;52.532;13.352;2024-01-30T02:47:37;4.30;99.90
41262;DHT22;29629;52.532;13.352;2024-01-30T02:50:04;4.30;99.90
41262;DHT22;29629;52.532;13.352;2024-01-30T02:52:31;4.30;99.90
41262;DHT22;29629;52.532;13.352;2024-01-30T02:54:58;4.30;99.90
41262;DHT22;29629;52.532;13.352;2024-01-30T02:57:27;4.30;99.90
41262;DHT22;29629;52.532;13.352;2024-01-30T02:59:54;4.30;99.90
41262;DHT22;29629;52.532;13.352;2024-01-30T03:02:20;4.40;99.90
41262;DHT22;29629;52.532;13.352;2024-01-30T03:04:47;4.30;99.90
41262;DHT22;29629;52.532;13.352;2024-01-30T03:07:14;4.30;99.90
41262;DHT22;29629;52.532;13.352;2024-01-30T03:09:41;4.30;99.90
41262;DHT22;29629;52.532;13.352;2024-01-30T03:12:09;4.30;99.90
41262;DHT22;29629;52.532;13.352;2024-01-30T03:14:37;4.10;99.90
41262;DHT22;29629;52.532;13.352;2024-01-30T03:17:04;4.20;99.90
41262;DHT22;29629;52.532;13.352;2024-01-30T03:19:31;4.20;99.90
41262;DHT22;29629;52.532;13.352;2024-01-30T03:21:58;4.20;99.90
41262;DHT22;29629;52.532;13.352;2024-01-30T03:24:25;4.20;99.90
41262;DHT22;29629;52.532;13.352;2024-01-30T03:26:53;4.10;99.90
41262;DHT22;29629;52.532;13.352;2024-01-30T03:29:20;4.20;99.90
41262;DHT22;29629;52.532;13.352;2024-01-30T03:31:48;4.20;99.90
41262;DHT22;29629;52.532;13.352;2024-01-30T03:34:16;4.10;99.90
41262;DHT22;29629;52.532;13.352;2024-01-30T03:36:43;4.10;99.90
41262;DHT22;29629;52.532;13.352;2024-01-30T03:39:10;4.10;99.90
41262;DHT22;29629;52.532;13.352;2024-01-30T03:41:37;4.10;99.90
41262;DHT22;29629;52.532;13.352;2024-01-30T03:44:04;4.10;99.90
41262;DHT22;29629;52.532;13.352;2024-01-30T03:46:31;4.10;99.90
41262;DHT22;29629;52.532;13.352;2024-01-30T03:48:59;4.10;99.90
41262;DHT22;29629;52.532;13.352;2024-01-30T03:51:26;4.10;99.90
41262;DHT22;29629;52.532;13.352;2024-01-30T03:53:53;4.00;99.90
41262;DHT22;29629;52.532;13.352;2024-01-30T03:56:20;4.10;99.90
41262;DHT22;29629;52.532;13.352;2024-01-30T03:58:47;4.00;99.90
41262;DHT22;29629;52.532;13.352;2024-01-30T04:01:14;4.00;99.90
41262;DHT22;29629;52.532;13.352;2024-01-30T04:03:41;4.10;99.90
41262;DHT22;29629;52.532;13.352;2024-01-30T04:06:10;4.10;99.90
41262;DHT22;29629;52.532;13.352;2024-01-30T04:08:37;4.00;99.90
41262;DHT22;29629;52.532;13.352;2024-01-30T04:11:05;3.90;99.90
41262;DHT22;29629;52.532;13.352;2024-01-30T04:13:32;3.90;99.90
41262;DHT22;29629;52.532;13.352;2024-01-30T04:15:59;3.90;99.90
41262;DHT22;29629;52.532;13.352;2024-01-30T04:18:26;3.90;99.90
41262;DHT22;29629;52.532;13.352;2024-01-30T04:20:54;3.90;99.90
41262;DHT22;29629;52.532;13.352;2024-01-30T04:23:22;3.90;99.90
41262;DHT22;29629;52.532;13.352;2024-01-30T04:25:49;3.90;99.90
41262;DHT22;29629;52.532;13.352;2024-01-30T04:28:16;3.90;99.90
41262;DHT22;29629;52.532;13.352;2024-01-30T04:30:43;3.90;99.90
41262;DHT22;29629;52.532;13.352;2024-01-30T04:33:10;3.80;99.90
41262;DHT22;29629;52.532;13.352;2024-01-30T04:35:37;3.90;99.90
41262;DHT22;29629;52.532;13.352;2024-01-30T04:38:04;3.90;99.90
41262;DHT22;29629;52.532;13.352;2024-01-30T04:40:33;3.90;99.90
41262;DHT22;29629;52.532;13.352;2024-01-30T04:43:00;3.90;99.90
41262;DHT22;29629;52.532;13.352;2024-01-30T04:45:26;3.90;99.90
41262;DHT22;29629;52.532;13.352;2024-01-30T04:47:53;3.90;99.90
41262;DHT22;29629;52.532;13.352;2024-01-30T04:50:20;3.90;99.90
41262;DHT22;29629;52.532;13.352;2024-01-30T04:52:47;3.90;99.90
41262;DHT22;29629;52.532;13.352;2024-01-30T04:55:14;3.90;99.90
41262;DHT22;29629;52.532;13.352;2024-01-30T04:57:43;3.90;99.90
41262;DHT22;29629;52.532;13.352;2024-01-30T05:00:10;3.90;99.90
41262;DHT22;29629;52.532;13.352;2024-01-30T05:02:38;3.90;99.90
41262;DHT22;29629;52.532;13.352;2024-01-30T05:05:05;3.90;99.90
41262;DHT22;29629;52.532;13.352;2024-01-30T05:07:33;3.90;99.90
41262;DHT22;29629;52.532;13.352;2024-01-30T05:10:00;3.90;99.90
41262;DHT22;29629;52.532;13.352;2024-01-30T05:12:27;3.90;99.90
41262;DHT22;29629;52.532;13.352;2024-01-30T05:14:55;3.90;99.90
41262;DHT22;29629;52.532;13.352;2024-01-30T05:17:22;3.90;99.90
41262;DHT22;29629;52.532;13.352;2024-01-30T05:19:49;3.90;99.90
41262;DHT22;29629;52.532;13.352;2024-01-30T05:22:16;3.90;99.90
41262;DHT22;29629;52.532;13.352;2024-01-30T05:24:44;3.90;99.90
41262;DHT22;29629;52.532;13.352;2024-01-30T05:27:11;3.90;99.90
41262;DHT22;29629;52.532;13.352;2024-01-30T05:29:39;3.90;99.90
41262;DHT22;29629;52.532;13.352;2024-01-30T05:32:07;4.10;99.90
41262;DHT22;29629;52.532;13.352;2024-01-30T05:34:35;3.90;99.90
41262;DHT22;29629;52.532;13.352;2024-01-30T05:37:03;3.90;99.90
41262;DHT22;29629;52.532;13.352;2024-01-30T05:39:31;3.90;99.90
41262;DHT22;29629;52.532;13.352;2024-01-30T05:41:58;3.90;99.90
41262;DHT22;29629;52.532;13.352;2024-01-30T05:44:25;3.90;99.90
41262;DHT22;29629;52.532;13.352;2024-01-30T05:46:52;3.90;99.90
41262;DHT22;29629;52.532;13.352;2024-01-30T05:49:20;3.90;99.90
41262;DHT22;29629;52.532;13.352;2024-01-30T05:51:47;3.90;99.90
41262;DHT22;29629;52.532;13.352;2024-01-30T05:54:14;3.90;99.90
41262;DHT22;29629;52.532;13.352;2024-01-30T05:56:41;3.80;99.90
41262;DHT22;29629;52.532;13.352;2024-01-30T05:59:08;3.90;99.90
41262;DHT22;29629;52.532;13.352;2024-01-30T06:01:35;3.90;99.90
41262;DHT22;29629;52.532;13.352;2024-01-30T06:04:02;4.00;99.90
41262;DHT22;29629;52.532;13.352;2024-01-30T06:06:30;3.90;99.90
41262;DHT22;29629;52.532;13.352;2024-01-30T06:08:57;3.90;99.90
41262;DHT22;29629;52.532;13.352;2024-01-30T06:11:24;3.90;99.90
41262;DHT22;29629;52.532;13.352;2024-01-30T06:13:51;4.00;99.90
41262;DHT22;29629;52.532;13.352;2024-01-30T06:16:18;3.90;99.90
41262;DHT22;29629;52.532;13.352;2024-01-30T06:18:46;3.90;99.90
41262;DHT22;29629;52.532;13.352;2024-01-30T06:21:13;4.00;99.90
41262;DHT22;29629;52.532;13.352;2024-01-30T06:23:41;3.90;99.90
41262;DHT22;29629;52.532;13.352;2024-01-30T06:26:08;3.90;99.90
41262;DHT22;29629;52.532;13.352;2024-01-30T06:28:36;4.00;99.90
41262;DHT22;29629;52.532;13.352;2024-01-30T06:31:03;4.00;99.90
41262;DHT22;29629;52.532;13.352;2024-01-30T06:33:30;4.00;99.90
41262;DHT22;29629;52.532;13.352;2024-01-30T06:35:57;4.00;99.90
41262;DHT22;29629;52.532;13.352;2024-01-30T06:38:24;4.00;99.90
41262;DHT22;29629;52.532;13.352;2024-01-30T06:40:52;4.00;99.90
41262;DHT22;29629;52.532;13.352;2024-01-30T06:43:19;3.90;99.90
41262;DHT22;29629;52.532;13.352;2024-01-30T06:45:46;4.00;99.90
41262;DHT22;29629;52.532;13.352;2024-01-30T06:48:13;4.00;99.90
41262;DHT22;29629;52.532;13.352;2024-01-30T06:50:40;4.00;99.90
41262;DHT22;29629;52.532;13.352;2024-01-30T06:53:07;4.10;99.90
41262;DHT22;29629;52.532;13.352;2024-01-30T06:55:34;4.00;99.90
41262;DHT22;29629;52.532;13.352;2024-01-30T06:58:02;4.00;99.90
41262;DHT22;29629;52.532;13.352;2024-01-30T07:00:29;4.10;99.90
41262;DHT22;29629;52.532;13.352;2024-01-30T07:02:56;4.20;99.90
41262;DHT22;29629;52.532;13.352;2024-01-30T07:05:23;4.20;99.90
41262;DHT22;29629;52.532;13.352;2024-01-30T07:07:50;4.10;99.90
41262;DHT22;29629;52.532;13.352;2024-01-30T07:10:17;4.20;99.90
41262;DHT22;29629;52.532;13.352;2024-01-30T07:12:44;4.20;99.90
41262;DHT22;29629;52.532;13.352;2024-01-30T07:15:12;4.20;99.90
41262;DHT22;29629;52.532;13.352;2024-01-30T07:17:42;4.20;99.90
41262;DHT22;29629;52.532;13.352;2024-01-30T07:20:09;4.20;99.90
41262;DHT22;29629;52.532;13.352;2024-01-30T07:22:36;4.30;99.90
41262;DHT22;29629;52.532;13.352;2024-01-30T07:25:04;4.30;99.90
41262;DHT22;29629;52.532;13.352;2024-01-30T07:27:32;4.30;99.90
41262;DHT22;29629;52.532;13.352;2024-01-30T07:29:59;4.30;99.90
41262;DHT22;29629;52.532;13.352;2024-01-30T07:32:27;4.40;99.90
41262;DHT22;29629;52.532;13.352;2024-01-30T07:34:54;4.40;99.90
41262;DHT22;29629;52.532;13.352;2024-01-30T07:37:21;4.40;99.90
41262;DHT22;29629;52.532;13.352;2024-01-30T07:39:48;4.40;99.90
41262;DHT22;29629;52.532;13.352;2024-01-30T07:42:15;4.40;99.90
41262;DHT22;29629;52.532;13.352;2024-01-30T07:44:43;4.50;99.90
41262;DHT22;29629;52.532;13.352;2024-01-30T07:47:10;4.50;99.90
41262;DHT22;29629;52.532;13.352;2024-01-30T07:49:40;4.50;99.90
41262;DHT22;29629;52.532;13.352;2024-01-30T07:52:07;4.50;99.90
41262;DHT22;29629;52.532;13.352;2024-01-30T07:54:42;4.50;99.90
41262;DHT22;29629;52.532;13.352;2024-01-30T07:57:09;4.60;99.90
41262;DHT22;29629;52.532;13.352;2024-01-30T07:59:36;4.60;99.90
41262;DHT22;29629;52.532;13.352;2024-01-30T08:02:03;4.70;99.90
41262;DHT22;29629;52.532;13.352;2024-01-30T08:04:30;4.70;99.90
41262;DHT22;29629;52.532;13.352;2024-01-30T08:06:59;4.70;99.90
41262;DHT22;29629;52.532;13.352;2024-01-30T08:09:25;4.70;99.90
41262;DHT22;29629;52.532;13.352;2024-01-30T08:11:52;4.70;99.90
41262;DHT22;29629;52.532;13.352;2024-01-30T08:14:19;4.80;99.90
41262;DHT22;29629;52.532;13.352;2024-01-30T08:16:46;4.80;99.90
41262;DHT22;29629;52.532;13.352;2024-01-30T08:19:14;4.80;99.90
41262;DHT22;29629;52.532;13.352;2024-01-30T08:21:41;4.90;99.90
41262;DHT22;29629;52.532;13.352;2024-01-30T08:24:10;5.00;99.90
41262;DHT22;29629;52.532;13.352;2024-01-30T08:26:37;5.00;99.90
41262;DHT22;29629;52.532;13.352;2024-01-30T08:29:04;5.20;99.90
41262;DHT22;29629;52.532;13.352;2024-01-30T08:31:31;5.10;99.90
41262;DHT22;29629;52.532;13.352;2024-01-30T08:33:58;5.20;99.90
41262;DHT22;29629;52.532;13.352;2024-01-30T08:36:25;5.20;99.90
41262;DHT22;29629;52.532;13.352;2024-01-30T08:38:52;5.30;99.90
41262;DHT22;29629;52.532;13.352;2024-01-30T08:41:20;5.30;99.90
41262;DHT22;29629;52.532;13.352;2024-01-30T08:43:47;5.40;99.90
41262;DHT22;29629;52.532;13.352;2024-01-30T08:46:17;5.50;99.90
41262;DHT22;29629;52.532;13.352;2024-01-30T08:48:44;5.60;99.90
41262;DHT22;29629;52.532;13.352;2024-01-30T08:51:11;5.70;99.90
41262;DHT22;29629;52.532;13.352;2024-01-30T08:53:38;5.80;99.90
41262;DHT22;29629;52.532;13.352;2024-01-30T08:56:06;5.90;99.90
41262;DHT22;29629;52.532;13.352;2024-01-30T08:58:35;6.10;99.90
41262;DHT22;29629;52.532;13.352;2024-01-30T09:01:02;6.10;99.90
41262;DHT22;29629;52.532;13.352;2024-01-30T09:03:30;6.40;99.90
41262;DHT22;29629;52.532;13.352;2024-01-30T09:05:57;6.50;99.90
41262;DHT22;29629;52.532;13.352;2024-01-30T09:08:24;6.70;99.90
41262;DHT22;29629;52.532;13.352;2024-01-30T09:10:51;6.70;99.90
41262;DHT22;29629;52.532;13.352;2024-01-30T09:13:18;6.60;99.90
41262;DHT22;29629;52.532;13.352;2024-01-30T09:15:47;6.70;99.90
41262;DHT22;29629;52.532;13.352;2024-01-30T09:18:13;6.90;99.90
41262;DHT22;29629;52.532;13.352;2024-01-30T09:20:40;6.90;99.90
41262;DHT22;29629;52.532;13.352;2024-01-30T09:23:07;7.00;99.90
41262;DHT22;29629;52.532;13.352;2024-01-30T09:25:34;7.10;99.90
41262;DHT22;29629;52.532;13.352;2024-01-30T09:28:01;7.30;99.90
41262;DHT22;29629;52.532;13.352;2024-01-30T09:30:28;7.40;99.90
41262;DHT22;29629;52.532;13.352;2024-01-30T09:32:56;7.10;99.90
41262;DHT22;29629;52.532;13.352;2024-01-30T09:35:23;7.30;99.90
41262;DHT22;29629;52.532;13.352;2024-01-30T09:37:50;7.50;99.90
41262;DHT22;29629;52.532;13.352;2024-01-30T09:40:18;7.70;99.90
41262;DHT22;29629;52.532;13.352;2024-01-30T09:42:47;7.70;99.90
41262;DHT22;29629;52.532;13.352;2024-01-30T09:45:16;7.90;99.90
41262;DHT22;29629;52.532;13.352;2024-01-30T09:47:44;8.00;99.90
41262;DHT22;29629;52.532;13.352;2024-01-30T09:50:14;7.90;99.90
41262;DHT22;29629;52.532;13.352;2024-01-30T09:52:43;8.00;99.90
41262;DHT22;29629;52.532;13.352;2024-01-30T09:55:10;8.00;99.90
41262;DHT22;29629;52.532;13.352;2024-01-30T09:57:38;8.00;99.90
41262;DHT22;29629;52.532;13.352;2024-01-30T10:00:06;7.90;99.90
41262;DHT22;29629;52.532;13.352;2024-01-30T10:02:34;7.90;99.90
41262;DHT22;29629;52.532;13.352;2024-01-30T10:05:02;7.90;99.90
41262;DHT22;29629;52.532;13.352;2024-01-30T10:07:30;8.00;99.90
41262;DHT22;29629;52.532;13.352;2024-01-30T10:09:57;8.00;99.90
41262;DHT22;29629;52.532;13.352;2024-01-30T10:12:26;7.90;99.90
41262;DHT22;29629;52.532;13.352;2024-01-30T10:14:53;7.90;99.90
41262;DHT22;29629;52.532;13.352;2024-01-30T10:17:20;7.90;99.90
41262;DHT22;29629;52.532;13.352;2024-01-30T10:19:47;7.90;99.90
41262;DHT22;29629;52.532;13.352;2024-01-30T10:22:14;8.00;99.90
41262;DHT22;29629;52.532;13.352;2024-01-30T10:24:43;7.90;99.90
41262;DHT22;29629;52.532;13.352;2024-01-30T10:27:11;7.90;99.90
41262;DHT22;29629;52.532;13.352;2024-01-30T10:29:38;7.90;99.90
41262;DHT22;29629;52.532;13.352;2024-01-30T10:32:05;7.90;99.90
41262;DHT22;29629;52.532;13.352;2024-01-30T10:34:33;7.90;99.90
41262;DHT22;29629;52.532;13.352;2024-01-30T10:37:07;8.10;99.90
41262;DHT22;29629;52.532;13.352;2024-01-30T10:39:39;7.90;99.90
41262;DHT22;29629;52.532;13.352;2024-01-30T10:42:11;8.00;99.90
41262;DHT22;29629;52.532;13.352;2024-01-30T10:44:44;8.10;99.90
41262;DHT22;29629;52.532;13.352;2024-01-30T10:47:16;8.10;99.90
41262;DHT22;29629;52.532;13.352;2024-01-30T10:49:45;8.10;99.90
41262;DHT22;29629;52.532;13.352;2024-01-30T10:52:13;8.10;99.90
41262;DHT22;29629;52.532;13.352;2024-01-30T10:54:44;8.00;99.90
41262;DHT22;29629;52.532;13.352;2024-01-30T10:57:13;8.00;99.90
41262;DHT22;29629;52.532;13.352;2024-01-30T10:59:43;8.10;99.90
41262;DHT22;29629;52.532;13.352;2024-01-30T11:02:11;8.00;99.90
41262;DHT22;29629;52.532;13.352;2024-01-30T11:04:38;8.10;99.90
41262;DHT22;29629;52.532;13.352;2024-01-30T11:07:14;8.20;99.90
41262;DHT22;29629;52.532;13.352;2024-01-30T11:09:48;8.20;99.90
41262;DHT22;29629;52.532;13.352;2024-01-30T11:12:22;8.20;99.90
41262;DHT22;29629;52.532;13.352;2024-01-30T11:14:50;8.10;99.90
41262;DHT22;29629;52.532;13.352;2024-01-30T11:17:29;8.10;99.90
41262;DHT22;29629;52.532;13.352;2024-01-30T11:20:10;8.10;99.90
41262;DHT22;29629;52.532;13.352;2024-01-30T11:22:37;8.20;99.90
41262;DHT22;29629;52.532;13.352;2024-01-30T11:25:04;8.30;99.90
41262;DHT22;29629;52.532;13.352;2024-01-30T11:27:33;8.30;99.90
41262;DHT22;29629;52.532;13.352;2024-01-30T11:30:01;8.40;99.90
41262;DHT22;29629;52.532;13.352;2024-01-30T11:32:29;8.50;99.90
41262;DHT22;29629;52.532;13.352;2024-01-30T11:34:56;8.50;99.90
41262;DHT22;29629;52.532;13.352;2024-01-30T11:37:25;8.40;99.90
41262;DHT22;29629;52.532;13.352;2024-01-30T11:39:53;8.50;99.90
41262;DHT22;29629;52.532;13.352;2024-01-30T11:42:22;8.40;99.90
41262;DHT22;29629;52.532;13.352;2024-01-30T11:44:52;8.40;99.90
41262;DHT22;29629;52.532;13.352;2024-01-30T11:47:19;8.50;99.90
41262;DHT22;29629;52.532;13.352;2024-01-30T11:49:46;8.60;99.90
41262;DHT22;29629;52.532;13.352;2024-01-30T11:52:14;8.60;99.90
41262;DHT22;29629;52.532;13.352;2024-01-30T11:54:41;8.70;99.90
41262;DHT22;29629;52.532;13.352;2024-01-30T11:57:09;8.60;99.90
41262;DHT22;29629;52.532;13.352;2024-01-30T11:59:35;8.70;99.90
41262;DHT22;29629;52.532;13.352;2024-01-30T12:02:04;8.60;99.90
41262;DHT22;29629;52.532;13.352;2024-01-30T12:04:31;8.90;99.90
41262;DHT22;29629;52.532;13.352;2024-01-30T12:06:58;8.70;99.90
41262;DHT22;29629;52.532;13.352;2024-01-30T12:09:26;8.60;99.90
41262;DHT22;29629;52.532;13.352;2024-01-30T12:11:53;8.60;99.90
41262;DHT22;29629;52.532;13.352;2024-01-30T12:14:20;8.60;99.90
41262;DHT22;29629;52.532;13.352;2024-01-30T12:16:50;8.70;99.90
41262;DHT22;29629;52.532;13.352;2024-01-30T12:19:25;8.80;99.90
41262;DHT22;29629;52.532;13.352;2024-01-30T12:21:55;8.70;99.90
41262;DHT22;29629;52.532;13.352;2024-01-30T12:24:24;8.60;99.90
41262;DHT22;29629;52.532;13.352;2024-01-30T12:26:51;8.70;99.90
41262;DHT22;29629;52.532;13.352;2024-01-30T12:29:20;8.90;99.90
41262;DHT22;29629;52.532;13.352;2024-01-30T12:31:47;9.00;99.90
41262;DHT22;29629;52.532;13.352;2024-01-30T12:34:14;8.90;99.90
41262;DHT22;29629;52.532;13.352;2024-01-30T12:36:44;9.00;99.90
41262;DHT22;29629;52.532;13.352;2024-01-30T12:39:11;9.10;99.90
41262;DHT22;29629;52.532;13.352;2024-01-30T12:41:40;8.90;99.90
41262;DHT22;29629;52.532;13.352;2024-01-30T12:44:07;9.00;99.90
41262;DHT22;29629;52.532;13.352;2024-01-30T12:46:34;8.90;99.90
41262;DHT22;29629;52.532;13.352;2024-01-30T12:49:01;9.10;99.90
41262;DHT22;29629;52.532;13.352;2024-01-30T12:51:28;9.20;99.90
41262;DHT22;29629;52.532;13.352;2024-01-30T12:53:57;9.10;99.90
41262;DHT22;29629;52.532;13.352;2024-01-30T12:56:24;9.20;99.90
41262;DHT22;29629;52.532;13.352;2024-01-30T12:58:51;9.30;99.90
41262;DHT22;29629;52.532;13.352;2024-01-30T13:01:17;9.00;99.90
41262;DHT22;29629;52.532;13.352;2024-01-30T13:03:45;9.20;99.90
41262;DHT22;29629;52.532;13.352;2024-01-30T13:06:12;9.30;99.90
41262;DHT22;29629;52.532;13.352;2024-01-30T13:08:39;9.50;99.90
41262;DHT22;29629;52.532;13.352;2024-01-30T13:11:07;9.40;99.90
41262;DHT22;29629;52.532;13.352;2024-01-30T13:13:34;9.60;99.90
41262;DHT22;29629;52.532;13.352;2024-01-30T13:16:01;9.50;99.90
41262;DHT22;29629;52.532;13.352;2024-01-30T13:18:28;9.40;99.90
41262;DHT22;29629;52.532;13.352;2024-01-30T13:20:55;9.50;99.90
41262;DHT22;29629;52.532;13.352;2024-01-30T13:23:22;9.60;99.90
41262;DHT22;29629;52.532;13.352;2024-01-30T13:25:49;9.60;99.90
41262;DHT22;29629;52.532;13.352;2024-01-30T13:28:17;9.40;99.90
41262;DHT22;29629;52.532;13.352;2024-01-30T13:30:44;9.40;99.90
41262;DHT22;29629;52.532;13.352;2024-01-30T13:33:11;9.40;99.90
41262;DHT22;29629;52.532;13.352;2024-01-30T13:35:38;9.40;99.90
41262;DHT22;29629;52.532;13.352;2024-01-30T13:38:05;9.20;99.90
41262;DHT22;29629;52.532;13.352;2024-01-30T13:40:32;9.10;99.90
41262;DHT22;29629;52.532;13.352;2024-01-30T13:42:59;9.20;99.90
41262;DHT22;29629;52.532;13.352;2024-01-30T13:45:27;9.10;99.90
41262;DHT22;29629;52.532;13.352;2024-01-30T13:47:54;9.20;99.90
41262;DHT22;29629;52.532;13.352;2024-01-30T13:50:21;9.20;99.90
41262;DHT22;29629;52.532;13.352;2024-01-30T13:52:48;9.20;99.90
41262;DHT22;29629;52.532;13.352;2024-01-30T13:55:15;9.20;99.90
41262;DHT22;29629;52.532;13.352;2024-01-30T13:57:42;9.20;99.90
41262;DHT22;29629;52.532;13.352;2024-01-30T14:00:09;9.20;99.90
41262;DHT22;29629;52.532;13.352;2024-01-30T14:02:39;9.10;99.90
41262;DHT22;29629;52.532;13.352;2024-01-30T14:05:06;9.20;99.90
41262;DHT22;29629;52.532;13.352;2024-01-30T14:07:33;9.00;99.90
41262;DHT22;29629;52.532;13.352;2024-01-30T14:10:00;9.10;99.90
41262;DHT22;29629;52.532;13.352;2024-01-30T14:12:27;9.10;99.90
41262;DHT22;29629;52.532;13.352;2024-01-30T14:14:55;9.10;99.90
41262;DHT22;29629;52.532;13.352;2024-01-30T14:17:22;9.20;99.90
41262;DHT22;29629;52.532;13.352;2024-01-30T14:19:51;9.10;99.90
41262;DHT22;29629;52.532;13.352;2024-01-30T14:22:17;9.20;99.90
41262;DHT22;29629;52.532;13.352;2024-01-30T14:24:44;9.20;99.90
41262;DHT22;29629;52.532;13.352;2024-01-30T14:27:12;9.20;99.90
41262;DHT22;29629;52.532;13.352;2024-01-30T14:29:39;9.20;99.90
41262;DHT22;29629;52.532;13.352;2024-01-30T14:32:08;9.20;99.90
41262;DHT22;29629;52.532;13.352;2024-01-30T14:34:34;9.10;99.90
41262;DHT22;29629;52.532;13.352;2024-01-30T14:37:03;9.20;99.90
41262;DHT22;29629;52.532;13.352;2024-01-30T14:39:30;9.20;99.90
41262;DHT22;29629;52.532;13.352;2024-01-30T14:41:58;9.20;99.90
41262;DHT22;29629;52.532;13.352;2024-01-30T14:44:25;9.20;99.90
41262;DHT22;29629;52.532;13.352;2024-01-30T14:46:52;9.20;99.90
41262;DHT22;29629;52.532;13.352;2024-01-30T14:49:19;9.20;99.90
41262;DHT22;29629;52.532;13.352;2024-01-30T14:51:46;9.10;99.90
41262;DHT22;29629;52.532;13.352;2024-01-30T14:54:14;9.10;99.90
41262;DHT22;29629;52.532;13.352;2024-01-30T14:56:41;9.10;99.90
41262;DHT22;29629;52.532;13.352;2024-01-30T14:59:08;9.10;99.90
41262;DHT22;29629;52.532;13.352;2024-01-30T15:01:35;9.10;99.90
41262;DHT22;29629;52.532;13.352;2024-01-30T15:04:03;9.00;99.90
41262;DHT22;29629;52.532;13.352;2024-01-30T15:06:30;9.00;99.90
41262;DHT22;29629;52.532;13.352;2024-01-30T15:08:57;9.00;99.90
41262;DHT22;29629;52.532;13.352;2024-01-30T15:11:25;9.00;99.90
41262;DHT22;29629;52.532;13.352;2024-01-30T15:13:52;8.90;99.90
41262;DHT22;29629;52.532;13.352;2024-01-30T15:16:19;8.90;99.90
41262;DHT22;29629;52.532;13.352;2024-01-30T15:18:46;8.80;99.90
41262;DHT22;29629;52.532;13.352;2024-01-30T15:21:13;8.90;99.90
41262;DHT22;29629;52.532;13.352;2024-01-30T15:23:40;8.90;99.90
41262;DHT22;29629;52.532;13.352;2024-01-30T15:26:08;8.90;99.90
41262;DHT22;29629;52.532;13.352;2024-01-30T15:28:37;8.90;99.90
41262;DHT22;29629;52.532;13.352;2024-01-30T15:31:05;8.90;99.90